Andover, Pennsylvania
Current Conditions -  °F | °C
As of 4:53 PM on Wednesday 28 Jan 2015 (Local Time) from KHGR Reporting Station
Clear Clear  
Wind Chill: 25°   Ceiling: Unl
Heat Index: 31°   Visibility: 10mi
Dew Point:   Wind: 6mph
Humidity: 32%   Direction: 320°NW
Pressure: 30.25"   Gusts: NA
Location:  39.973°N, 77.9661°W
Report Text: KHGR 282153Z 32005KT 10SM CLR M01/M16 A3025 RMK AO2 SLP264 T10061156
Loading
Personal Weather Stations






























Interactive Weather Map New forecast layout! Learn more

10-Day Weather Forecast

Advertisements
Track Severe Weather on mobile